Time;durP1;ratioP1;P1;durP2;ratioP2;P2;SDS_P1;SDS_P2;PMS_P1;PMS_P2;Temp;Humidity;BMP_temperature;BMP_pressure;BME280_temperature;BME280_humidity;BME280_pressure;Samples;Min_cycle;Max_cycle;Signal;HPM_P1;HPM_P2
2022/04/21 00:02:15;;;;;;;7.78;3.85;;;8.20;99.90;;;;;;4998717;28;20073;-80
2022/04/21 00:04:41;;;;;;;7.28;4.15;;;8.10;99.90;;;;;;5014518;28;20052;-80
2022/04/21 00:07:06;;;;;;;7.05;3.70;;;8.10;99.90;;;;;;5015907;28;20050;-80
2022/04/21 00:09:32;;;;;;;5.88;3.60;;;8.10;99.90;;;;;;5014870;28;20085;-80
2022/04/21 00:11:58;;;;;;;8.13;4.05;;;8.10;99.90;;;;;;5015717;28;20053;-80
2022/04/21 00:14:23;;;;;;;5.82;3.70;;;8.10;99.90;;;;;;5015766;28;20046;-80
2022/04/21 00:16:49;;;;;;;6.28;4.07;;;8.00;99.90;;;;;;5015521;28;20046;-80
2022/04/21 00:19:15;;;;;;;5.47;3.80;;;8.00;99.90;;;;;;5015589;28;20473;-80
2022/04/21 00:24:25;;;;;;;6.88;3.95;;;8.00;99.90;;;;;;5014430;28;20081;-80
2022/04/21 00:26:50;;;;;;;6.10;4.20;;;8.00;99.90;;;;;;4982901;28;20085;-80
2022/04/21 00:29:17;;;;;;;7.40;3.55;;;8.00;99.90;;;;;;4998334;28;20108;-80
2022/04/21 00:31:43;;;;;;;6.88;4.43;;;8.00;99.90;;;;;;4999049;28;20050;-80
2022/04/21 00:34:09;;;;;;;8.95;4.00;;;8.10;99.90;;;;;;5014692;28;20099;-80
2022/04/21 00:36:35;;;;;;;6.55;4.20;;;8.00;99.90;;;;;;4998636;28;20049;-80
2022/04/21 00:39:01;;;;;;;9.02;4.35;;;7.90;99.90;;;;;;4981798;28;20042;-80
2022/04/21 00:41:26;;;;;;;6.93;4.40;;;7.90;99.90;;;;;;5013946;28;20068;-80
2022/04/21 00:43:52;;;;;;;8.02;4.15;;;7.80;99.90;;;;;;5014702;28;20116;-80
2022/04/21 00:46:21;;;;;;;8.20;4.38;;;7.80;99.90;;;;;;5014757;28;20053;-80
2022/04/21 00:48:49;;;;;;;7.53;4.45;;;7.70;99.90;;;;;;4997924;28;20512;-80
2022/04/21 00:51:15;;;;;;;7.50;4.50;;;7.70;99.90;;;;;;4997700;28;20072;-80
2022/04/21 00:53:41;;;;;;;6.78;3.75;;;7.70;99.90;;;;;;5015598;28;20041;-80
2022/04/21 00:56:08;;;;;;;8.13;4.28;;;7.80;99.90;;;;;;5013742;28;20104;-80
2022/04/21 00:58:36;;;;;;;6.28;4.07;;;7.70;99.90;;;;;;4997873;28;20053;-80
2022/04/21 01:01:03;;;;;;;7.90;4.13;;;7.60;99.90;;;;;;5015289;28;20058;-80
2022/04/21 01:03:30;;;;;;;5.95;3.72;;;7.50;99.90;;;;;;5015135;28;20093;-80
2022/04/21 01:05:55;;;;;;;6.85;4.22;;;7.50;99.90;;;;;;5013810;28;20096;-80
2022/04/21 01:08:21;;;;;;;7.70;3.80;;;7.60;99.90;;;;;;5013801;28;20081;-80
2022/04/21 01:10:49;;;;;;;7.32;3.95;;;7.50;99.90;;;;;;5013799;28;20052;-80
2022/04/21 01:13:16;;;;;;;7.95;5.10;;;7.50;99.90;;;;;;5013653;28;20076;-80
2022/04/21 01:15:42;;;;;;;10.05;4.65;;;7.50;99.90;;;;;;5014413;28;20052;-80
2022/04/21 01:18:08;;;;;;;6.50;4.65;;;7.50;99.90;;;;;;5014458;28;20053;-80
2022/04/21 01:20:34;;;;;;;5.82;3.72;;;7.40;99.90;;;;;;4997468;28;20073;-80
2022/04/21 01:23:00;;;;;;;5.75;3.90;;;7.40;99.90;;;;;;5013601;28;20041;-80
2022/04/21 01:25:25;;;;;;;7.40;4.53;;;7.40;99.90;;;;;;5014294;28;20049;-80
2022/04/21 01:28:01;;;;;;;7.45;4.13;;;7.40;99.90;;;;;;5013534;28;20434;-80
2022/04/21 01:30:26;;;;;;;6.13;4.53;;;7.30;99.90;;;;;;5013366;28;20050;-80
2022/04/21 01:32:52;;;;;;;6.65;4.32;;;7.30;99.90;;;;;;5013472;28;20046;-80
2022/04/21 01:35:18;;;;;;;6.38;4.15;;;7.30;99.90;;;;;;5013674;28;20054;-80
2022/04/21 01:43:12;;;;;;;7.75;4.15;;;7.40;99.90;;;;;;5013150;28;20545;-80
2022/04/21 01:45:38;;;;;;;7.72;4.90;;;7.40;99.90;;;;;;5013162;28;20050;-80
2022/04/21 01:48:04;;;;;;;7.65;4.75;;;7.30;99.90;;;;;;5013166;28;20076;-80
2022/04/21 01:50:30;;;;;;;7.20;4.65;;;7.10;99.90;;;;;;5013087;28;20053;-80
2022/04/21 01:52:58;;;;;;;8.02;4.75;;;7.00;99.90;;;;;;5013848;28;20048;-80
2022/04/21 01:55:24;;;;;;;7.90;4.32;;;6.90;99.90;;;;;;5012929;28;20046;-80
2022/04/21 01:57:50;;;;;;;7.40;4.25;;;6.80;99.90;;;;;;4997074;28;20386;-80
2022/04/21 02:00:16;;;;;;;8.65;4.95;;;6.80;99.90;;;;;;4996570;28;20107;-80
2022/04/21 02:02:42;;;;;;;6.97;4.88;;;6.80;99.90;;;;;;5013499;28;20104;-80
2022/04/21 02:05:08;;;;;;;7.63;5.20;;;6.80;99.90;;;;;;4996157;28;20053;-80
2022/04/21 02:07:34;;;;;;;12.55;5.30;;;6.80;99.90;;;;;;5012779;28;20046;-80
2022/04/21 02:10:00;;;;;;;8.55;5.40;;;6.80;99.90;;;;;;5012921;28;20057;-80
2022/04/21 02:12:28;;;;;;;8.20;5.82;;;7.10;99.90;;;;;;5012823;28;20451;-80
2022/04/21 02:14:54;;;;;;;8.18;5.22;;;6.70;99.90;;;;;;5012796;28;20594;-80
2022/04/21 02:17:19;;;;;;;9.27;5.43;;;7.20;99.90;;;;;;4995992;28;20050;-80
2022/04/21 02:19:46;;;;;;;8.48;5.15;;;6.70;99.90;;;;;;5012751;28;20103;-80
2022/04/21 02:22:12;;;;;;;7.88;4.57;;;6.60;99.90;;;;;;5012714;28;20038;-80
2022/04/21 02:24:38;;;;;;;9.13;5.25;;;6.60;99.90;;;;;;5012729;28;20402;-80
2022/04/21 02:27:04;;;;;;;8.13;4.95;;;6.60;99.90;;;;;;4996088;28;20053;-80
2022/04/21 02:29:30;;;;;;;7.20;4.80;;;6.70;99.90;;;;;;5012811;28;20057;-80
2022/04/21 02:31:56;;;;;;;7.63;4.70;;;6.60;99.90;;;;;;5012829;28;20050;-80
2022/04/21 02:34:21;;;;;;;8.32;4.95;;;6.60;99.90;;;;;;5012592;28;20455;-80
2022/04/21 02:36:47;;;;;;;8.77;4.90;;;6.60;99.90;;;;;;5012680;28;20061;-80
2022/04/21 02:39:13;;;;;;;9.15;5.28;;;6.70;99.90;;;;;;5012575;28;20092;-80
2022/04/21 02:41:38;;;;;;;8.63;5.43;;;6.50;99.90;;;;;;4996243;28;20100;-80
2022/04/21 02:44:04;;;;;;;8.10;5.93;;;6.40;99.90;;;;;;4996094;28;20078;-80
2022/04/21 02:46:32;;;;;;;8.90;4.82;;;6.40;99.90;;;;;;5012436;28;20108;-81
2022/04/21 02:49:00;;;;;;;8.70;5.20;;;6.30;99.90;;;;;;5012469;28;20130;-80
2022/04/21 02:51:27;;;;;;;8.63;5.35;;;6.40;99.90;;;;;;5012195;28;20054;-80
2022/04/21 02:59:23;;;;;;;8.32;4.78;;;6.30;99.90;;;;;;5012710;28;20142;-80
2022/04/21 03:01:49;;;;;;;11.63;5.68;;;6.30;99.90;;;;;;5013730;28;20061;-81
2022/04/21 03:04:14;;;;;;;8.88;5.28;;;6.30;99.90;;;;;;5012980;28;20042;-81
2022/04/21 03:06:40;;;;;;;9.35;5.63;;;6.30;99.90;;;;;;4996918;28;20084;-81
2022/04/21 03:09:06;;;;;;;7.32;5.63;;;6.30;99.90;;;;;;5013077;28;20042;-81
2022/04/21 03:11:31;;;;;;;10.93;5.78;;;6.30;99.90;;;;;;4980038;28;20526;-81
2022/04/21 03:13:57;;;;;;;7.88;4.90;;;6.30;99.90;;;;;;4995964;28;20085;-81
2022/04/21 03:16:23;;;;;;;8.90;5.57;;;6.20;99.90;;;;;;4995747;28;20402;-81
2022/04/21 03:18:48;;;;;;;9.20;5.40;;;6.20;99.90;;;;;;4979801;28;20085;-81
2022/04/21 03:26:42;;;;;;;8.63;5.80;;;6.20;99.90;;;;;;4999090;28;20053;-81
2022/04/21 03:29:08;;;;;;;7.95;5.20;;;6.20;99.90;;;;;;5013550;28;20053;-81
2022/04/21 03:31:33;;;;;;;9.10;5.90;;;6.20;99.90;;;;;;4999185;28;20107;-81
2022/04/21 03:33:59;;;;;;;9.55;5.80;;;6.20;99.90;;;;;;5016550;28;20045;-81
2022/04/21 03:36:25;;;;;;;11.52;6.80;;;6.10;99.90;;;;;;5015581;28;20088;-81
2022/04/21 03:38:50;;;;;;;9.05;5.45;;;6.00;99.90;;;;;;5016034;28;20041;-81
2022/04/21 03:41:17;;;;;;;9.48;5.43;;;6.20;99.90;;;;;;4998885;28;20050;-81
2022/04/21 03:43:42;;;;;;;9.00;5.43;;;6.00;99.90;;;;;;5015310;28;20042;-81
2022/04/21 03:46:08;;;;;;;11.15;6.00;;;6.00;99.90;;;;;;5015209;28;20049;-81
2022/04/21 03:48:34;;;;;;;11.73;5.95;;;6.00;99.90;;;;;;5015371;28;20061;-81
2022/04/21 03:50:59;;;;;;;8.90;5.78;;;6.00;99.90;;;;;;5015120;28;20529;-81
2022/04/21 03:53:25;;;;;;;11.57;5.57;;;6.00;99.90;;;;;;5015924;28;20046;-81
2022/04/21 03:55:51;;;;;;;8.27;5.63;;;6.00;99.90;;;;;;4998513;28;20064;-81
2022/04/21 03:58:16;;;;;;;7.55;5.38;;;6.00;99.90;;;;;;4998876;28;20443;-81
2022/04/21 04:00:42;;;;;;;8.95;5.72;;;5.90;99.90;;;;;;5015293;28;20046;-81
2022/04/21 04:03:08;;;;;;;18.17;6.57;;;5.90;99.90;;;;;;5014949;28;20050;-81
2022/04/21 04:05:33;;;;;;;11.38;5.88;;;6.00;99.90;;;;;;5014993;28;20052;-81
2022/04/21 04:10:55;;;;;;;8.80;5.68;;;5.90;99.90;;;;;;5014916;28;20092;-81
2022/04/21 04:13:22;;;;;;;8.90;5.72;;;6.00;99.90;;;;;;5014611;28;20054;-81
2022/04/21 04:15:49;;;;;;;8.82;5.80;;;5.90;99.90;;;;;;5014834;28;20414;-81
2022/04/21 04:18:16;;;;;;;8.68;5.78;;;5.90;99.90;;;;;;5014640;28;20493;-81
2022/04/21 04:20:42;;;;;;;8.93;6.13;;;6.10;99.90;;;;;;4998278;28;20085;-81
2022/04/21 04:23:08;;;;;;;8.82;5.38;;;5.80;99.90;;;;;;5014645;28;20050;-81
2022/04/21 04:25:35;;;;;;;6.65;4.75;;;6.20;99.90;;;;;;5014174;28;20042;-81
2022/04/21 04:28:03;;;;;;;8.50;5.68;;;5.80;99.90;;;;;;5014163;28;20636;-81
2022/04/21 04:30:29;;;;;;;11.23;5.93;;;6.30;99.90;;;;;;5014725;28;20058;-81
2022/04/21 04:32:55;;;;;;;7.95;5.40;;;5.70;99.90;;;;;;4982106;28;20380;-81
2022/04/21 04:35:21;;;;;;;10.23;6.22;;;5.60;99.90;;;;;;4998109;28;20077;-81
2022/04/21 04:37:47;;;;;;;10.10;5.93;;;5.60;99.90;;;;;;5014702;28;20054;-81
2022/04/21 04:40:13;;;;;;;11.23;6.38;;;5.60;99.90;;;;;;4981716;28;20364;-81
2022/04/21 04:42:39;;;;;;;9.77;5.90;;;5.50;99.90;;;;;;5014204;28;20081;-81
2022/04/21 04:47:49;;;;;;;9.68;5.88;;;5.50;99.90;;;;;;5001236;28;20061;-81
2022/04/21 04:50:15;;;;;;;8.52;5.93;;;5.50;99.90;;;;;;5014242;28;20046;-81
2022/04/21 04:52:40;;;;;;;8.93;5.57;;;5.50;99.90;;;;;;4998608;28;20136;-81
2022/04/21 04:55:11;;;;;;;9.63;5.95;;;5.50;99.90;;;;;;4997821;28;20046;-81
2022/04/21 04:57:39;;;;;;;9.23;6.40;;;5.50;99.90;;;;;;5014373;28;20376;-81
2022/04/21 05:00:08;;;;;;;10.90;5.55;;;5.50;99.90;;;;;;5013869;28;20049;-81
2022/04/21 05:02:34;;;;;;;8.88;5.50;;;5.60;99.90;;;;;;4997618;28;20407;-81
2022/04/21 05:05:00;;;;;;;8.65;5.50;;;5.60;99.90;;;;;;5013660;28;20128;-81
2022/04/21 05:07:26;;;;;;;12.35;6.43;;;5.90;99.90;;;;;;4997276;28;20446;-81
2022/04/21 05:09:51;;;;;;;11.20;6.13;;;5.60;99.90;;;;;;5014618;28;20062;-81
2022/04/21 05:12:18;;;;;;;8.98;6.20;;;5.70;99.90;;;;;;4981492;28;20057;-81
2022/04/21 05:14:44;;;;;;;9.52;6.10;;;5.80;99.90;;;;;;5013809;28;20056;-81
2022/04/21 05:17:10;;;;;;;8.73;5.88;;;5.80;99.90;;;;;;4980706;28;20050;-81
2022/04/21 05:19:36;;;;;;;9.30;6.15;;;6.20;99.90;;;;;;4997465;28;20088;-81
2022/04/21 05:22:04;;;;;;;11.70;6.50;;;5.90;99.90;;;;;;5013622;28;20076;-81
2022/04/21 05:24:33;;;;;;;8.25;5.95;;;5.90;99.90;;;;;;5013032;28;20041;-81
2022/04/21 05:27:00;;;;;;;10.43;6.53;;;6.00;99.90;;;;;;5013564;28;20046;-81
2022/04/21 05:32:11;;;;;;;12.43;7.03;;;6.10;99.90;;;;;;5013108;28;20046;-80
2022/04/21 05:34:37;;;;;;;10.57;6.35;;;6.20;99.90;;;;;;5014193;28;20089;-81
2022/04/21 05:37:03;;;;;;;11.05;7.13;;;6.30;99.90;;;;;;5013578;28;20114;-81
2022/04/21 05:39:30;;;;;;;12.02;7.35;;;6.40;99.90;;;;;;5013125;28;20092;-81
2022/04/21 05:41:57;;;;;;;9.18;5.78;;;6.50;99.90;;;;;;5013323;28;20161;-80
2022/04/21 05:44:24;;;;;;;10.02;6.13;;;6.60;99.90;;;;;;5013393;28;20042;-81
2022/04/21 05:46:50;;;;;;;8.85;5.70;;;6.70;99.90;;;;;;4996515;28;20050;-80
2022/04/21 05:49:17;;;;;;;8.65;5.80;;;6.80;99.90;;;;;;5013388;28;20380;-80
2022/04/21 05:51:46;;;;;;;9.23;5.60;;;7.00;99.90;;;;;;5012643;28;20049;-80
2022/04/21 05:54:12;;;;;;;10.88;5.45;;;7.20;99.90;;;;;;5013080;28;20054;-80
2022/04/21 05:56:38;;;;;;;9.80;5.85;;;7.30;99.90;;;;;;5012424;28;20057;-81
2022/04/21 05:59:03;;;;;;;9.20;5.95;;;7.40;99.90;;;;;;4981374;28;20123;-80
2022/04/21 06:01:30;;;;;;;10.75;5.55;;;7.60;99.90;;;;;;4996539;28;20046;-81
2022/04/21 06:03:56;;;;;;;6.93;5.03;;;7.70;99.90;;;;;;5012825;28;20403;-80
2022/04/21 06:06:22;;;;;;;7.53;5.70;;;7.90;99.90;;;;;;5012878;28;20049;-80
2022/04/21 06:08:47;;;;;;;8.38;4.85;;;7.90;99.90;;;;;;5012893;28;20050;-80
2022/04/21 06:11:14;;;;;;;6.88;4.25;;;8.10;99.90;;;;;;4996549;28;20053;-81
2022/04/21 06:13:41;;;;;;;9.05;5.75;;;8.20;99.90;;;;;;5013622;28;20076;-80
2022/04/21 06:16:08;;;;;;;7.40;4.68;;;8.30;99.90;;;;;;4996535;28;20111;-76
2022/04/21 06:18:35;;;;;;;8.70;4.80;;;8.40;99.90;;;;;;5013481;28;20376;-76
2022/04/21 06:21:01;;;;;;;7.55;5.07;;;8.50;99.90;;;;;;5013694;28;20050;-76
2022/04/21 06:23:26;;;;;;;8.88;4.68;;;8.60;99.90;;;;;;5013456;28;20121;-77
2022/04/21 06:25:58;;;;;;;7.40;4.47;;;8.80;99.90;;;;;;5013371;28;20061;-76
2022/04/21 06:28:28;;;;;;;6.25;4.80;;;8.90;99.90;;;;;;5014292;28;20097;-76
2022/04/21 06:30:54;;;;;;;8.32;4.65;;;9.00;99.90;;;;;;5013475;28;20053;-76
2022/04/21 06:33:20;;;;;;;6.32;3.80;;;9.10;99.90;;;;;;5013570;28;20376;-77
2022/04/21 06:35:45;;;;;;;6.13;3.80;;;9.20;99.90;;;;;;5013578;28;20137;-76
2022/04/21 06:38:14;;;;;;;7.90;4.22;;;9.30;99.90;;;;;;5012224;28;20038;-76
2022/04/21 06:40:40;;;;;;;5.70;3.95;;;9.30;99.90;;;;;;5013454;28;20041;-76
2022/04/21 06:48:36;;;;;;;5.28;3.85;;;9.50;99.90;;;;;;5013254;28;20467;-76
2022/04/21 06:51:02;;;;;;;6.68;3.80;;;9.70;99.90;;;;;;5013302;28;20046;-75
2022/04/21 06:53:30;;;;;;;5.60;3.90;;;9.80;99.90;;;;;;5013399;28;20465;-76
2022/04/21 06:55:56;;;;;;;6.53;4.07;;;9.80;99.90;;;;;;5013618;28;20066;-75
2022/04/21 06:58:22;;;;;;;7.18;3.60;;;10.00;99.90;;;;;;5013332;28;20065;-76
2022/04/21 07:00:48;;;;;;;5.88;3.20;;;10.10;99.90;;;;;;4996136;28;20046;-76
2022/04/21 07:03:13;;;;;;;6.88;3.50;;;10.10;99.90;;;;;;5014980;28;20050;-76
2022/04/21 07:05:39;;;;;;;6.30;3.78;;;10.30;99.90;;;;;;5016755;28;20473;-76
2022/04/21 07:08:06;;;;;;;5.47;3.40;;;10.40;99.90;;;;;;5016119;28;20379;-76
2022/04/21 07:10:33;;;;;;;4.88;3.00;;;10.50;99.90;;;;;;5017586;28;20041;-76
2022/04/21 07:12:59;;;;;;;4.35;3.30;;;10.60;99.90;;;;;;5016989;28;20085;-75
2022/04/21 07:15:25;;;;;;;5.15;2.95;;;10.70;99.90;;;;;;5016944;28;20161;-76
2022/04/21 07:17:52;;;;;;;5.10;3.55;;;10.70;99.90;;;;;;5015740;28;20487;-76
2022/04/21 07:20:18;;;;;;;6.60;3.22;;;10.90;99.90;;;;;;5016791;28;20135;-75
2022/04/21 07:22:43;;;;;;;5.75;3.33;;;11.00;99.90;;;;;;5016788;28;20073;-76
2022/04/21 07:25:09;;;;;;;5.97;3.00;;;11.10;99.90;;;;;;5015453;28;20038;-77
2022/04/21 07:27:37;;;;;;;6.68;2.67;;;11.10;99.90;;;;;;5015649;28;20569;-78
2022/04/21 07:30:04;;;;;;;4.47;2.42;;;11.20;99.90;;;;;;5016437;28;20050;-76
2022/04/21 07:32:30;;;;;;;4.45;2.53;;;11.20;99.90;;;;;;5015774;28;20045;-77
2022/04/21 07:34:56;;;;;;;5.22;2.85;;;11.40;99.90;;;;;;4999008;28;20379;-76
2022/04/21 07:37:21;;;;;;;3.75;2.60;;;11.40;99.90;;;;;;5015439;28;20446;-76
2022/04/21 07:39:47;;;;;;;3.30;2.20;;;11.50;99.90;;;;;;5016427;28;20612;-75
2022/04/21 07:42:13;;;;;;;4.57;2.08;;;11.60;99.90;;;;;;5015306;28;20057;-75
2022/04/21 07:44:39;;;;;;;3.67;2.72;;;11.70;99.90;;;;;;5016230;28;20042;-75
2022/04/21 07:47:06;;;;;;;4.18;2.40;;;11.80;99.90;;;;;;5015780;28;20452;-75
2022/04/21 07:49:45;;;;;;;4.78;2.50;;;11.90;99.90;;;;;;5015484;28;20042;-76
2022/04/21 07:55:06;;;;;;;3.63;2.60;;;12.20;99.90;;;;;;5016140;28;20058;-75
2022/04/21 07:57:32;;;;;;;4.53;2.53;;;12.30;99.90;;;;;;5016026;28;20058;-75
2022/04/21 07:59:57;;;;;;;2.85;1.92;;;12.50;99.90;;;;;;5014892;28;20437;-75
2022/04/21 08:02:24;;;;;;;3.47;2.10;;;12.60;99.90;;;;;;5015891;28;20050;-76
2022/04/21 08:04:50;;;;;;;3.40;2.20;;;12.70;99.90;;;;;;5014670;28;20045;-77
2022/04/21 08:07:16;;;;;;;3.92;2.40;;;12.80;99.90;;;;;;5016430;28;20418;-77
2022/04/21 08:09:43;;;;;;;3.75;1.92;;;12.80;99.90;;;;;;5015870;28;20097;-76
2022/04/21 08:12:09;;;;;;;3.53;2.17;;;12.90;99.90;;;;;;5016271;28;20115;-77
2022/04/21 08:14:35;;;;;;;4.03;2.20;;;13.00;99.90;;;;;;5015495;28;20050;-76
2022/04/21 08:17:02;;;;;;;4.35;2.10;;;13.10;99.90;;;;;;5015951;28;20112;-75
2022/04/21 08:19:28;;;;;;;5.18;2.83;;;13.20;99.90;;;;;;5015648;28;20092;-75
2022/04/21 08:21:54;;;;;;;5.03;2.17;;;13.40;99.90;;;;;;5015542;28;20085;-75
2022/04/21 08:32:41;;;;;;;4.05;2.47;;;13.70;99.90;;;;;;5014289;28;20108;-76
2022/04/21 08:35:09;;;;;;;3.50;2.40;;;13.80;99.90;;;;;;5016200;28;20380;-75
2022/04/21 08:37:35;;;;;;;4.85;2.22;;;13.90;99.90;;;;;;5014361;28;20057;-76
2022/04/21 08:40:02;;;;;;;3.70;2.42;;;13.90;99.90;;;;;;5015202;28;20084;-76
2022/04/21 08:42:31;;;;;;;5.38;2.58;;;14.10;99.90;;;;;;5014947;28;20542;-76
2022/04/21 08:44:58;;;;;;;6.05;2.65;;;14.20;99.90;;;;;;4997624;28;20092;-75
2022/04/21 08:47:27;;;;;;;4.20;2.72;;;14.20;99.90;;;;;;5015074;28;20050;-75
2022/04/21 08:50:03;;;;;;;4.78;2.80;;;14.30;99.90;;;;;;5015065;28;20084;-76
2022/04/21 08:52:30;;;;;;;5.17;2.83;;;14.30;99.90;;;;;;5014168;28;20099;-75
2022/04/21 08:54:56;;;;;;;4.35;2.70;;;14.30;99.90;;;;;;5014965;28;20046;-76
2022/04/21 08:57:22;;;;;;;3.78;2.50;;;14.40;99.90;;;;;;5013705;28;20058;-77
2022/04/21 08:59:48;;;;;;;5.22;2.38;;;14.50;99.90;;;;;;4998473;28;20050;-77
2022/04/21 09:02:14;;;;;;;4.20;2.60;;;14.60;99.90;;;;;;5015035;28;20078;-77
2022/04/21 09:04:43;;;;;;;5.07;2.60;;;14.70;99.90;;;;;;5013594;28;20574;-75
2022/04/21 09:07:20;;;;;;;3.92;2.45;;;14.70;99.90;;;;;;5014679;28;20046;-77
2022/04/21 09:10:07;;;;;;;3.92;2.75;;;14.80;99.90;;;;;;5014373;28;20402;-76
2022/04/21 09:12:34;;;;;;;6.78;5.90;;;14.90;99.90;;;;;;5014226;28;20124;-76
2022/04/21 09:15:07;;;;;;;4.57;2.85;;;15.10;99.90;;;;;;5015195;28;20188;-76
2022/04/21 09:17:41;;;;;;;4.20;2.30;;;15.30;99.90;;;;;;5013341;28;20402;-76
2022/04/21 09:20:08;;;;;;;3.80;2.50;;;15.40;99.90;;;;;;5014535;28;20183;-75
2022/04/21 09:22:34;;;;;;;5.68;2.30;;;15.50;99.90;;;;;;5014512;28;20046;-77
2022/04/21 09:25:00;;;;;;;3.47;2.22;;;15.50;99.90;;;;;;5013514;28;20050;-77
2022/04/21 09:27:45;;;;;;;5.03;2.55;;;15.60;99.90;;;;;;5013985;28;20467;-75
2022/04/21 09:30:13;;;;;;;4.68;2.22;;;15.70;99.90;;;;;;5013335;28;20079;-78
2022/04/21 09:32:56;;;;;;;5.03;2.60;;;15.70;99.90;;;;;;5014012;28;20493;-76
2022/04/21 09:35:27;;;;;;;4.35;2.47;;;15.80;99.90;;;;;;5013896;28;20058;-76
2022/04/21 09:37:57;;;;;;;4.55;2.33;;;15.90;99.90;;;;;;5014114;28;20054;-77
2022/04/21 09:40:27;;;;;;;3.45;2.28;;;15.80;99.90;;;;;;5014170;28;20045;-77
2022/04/21 09:42:54;;;;;;;4.15;2.60;;;15.90;99.90;;;;;;5013874;28;20050;-76
2022/04/21 09:48:30;;;;;;;4.25;2.28;;;16.00;99.90;;;;;;5013963;28;20089;-76
2022/04/21 09:51:13;;;;;;;3.45;2.55;;;16.10;99.90;;;;;;5013831;28;20521;-77
2022/04/21 09:53:49;;;;;;;4.15;2.20;;;16.20;99.90;;;;;;5013983;28;20082;-74
2022/04/21 09:56:15;;;;;;;;;;;16.30;99.90;;;;;;5014348;28;20058;-77
2022/04/21 09:58:42;;;;;;;6.60;2.70;;;16.40;99.90;;;;;;5012749;28;19928;-75
2022/04/21 10:01:09;;;;;;;3.85;2.50;;;16.50;99.90;;;;;;5013702;28;20045;-79
2022/04/21 10:03:35;;;;;;;2.92;2.17;;;16.60;99.90;;;;;;5014039;28;20045;-77
2022/04/21 10:06:04;;;;;;;5.32;2.80;;;16.70;99.90;;;;;;5013573;28;20505;-76
2022/04/21 10:08:30;;;;;;;3.63;2.38;;;16.80;99.90;;;;;;5012752;28;20057;-77
2022/04/21 10:10:56;;;;;;;4.78;2.30;;;16.90;99.90;;;;;;5012421;28;20054;-77
2022/04/21 10:13:23;;;;;;;6.18;2.75;;;17.00;99.90;;;;;;5012701;28;20052;-78
2022/04/21 10:15:52;;;;;;;3.75;2.50;;;17.10;99.90;;;;;;5013518;28;20076;-77
2022/04/21 10:18:19;;;;;;;4.28;2.30;;;17.20;99.90;;;;;;5014230;28;20158;-76
2022/04/21 10:20:45;;;;;;;7.35;2.75;;;17.40;99.90;;;;;;5013495;28;20049;-77
2022/04/21 10:23:18;;;;;;;5.80;2.60;;;17.40;99.90;;;;;;5013589;28;20096;-76
2022/04/21 10:25:44;;;;;;;3.20;2.10;;;17.50;99.90;;;;;;5013422;28;20133;-74
2022/04/21 10:28:39;;;;;;;4.32;2.47;;;17.50;99.90;;;;;;5014033;28;20081;-74
2022/04/21 10:31:59;;;;;;;4.00;2.40;;;17.50;99.90;;;;;;5013903;28;20054;-75
2022/04/21 10:34:34;;;;;;;4.72;2.50;;;17.40;99.90;;;;;;4934328;29;20100;-79
2022/04/21 10:37:09;;;;;;;3.92;2.70;;;17.40;99.90;;;;;;4918290;29;20135;-77
2022/04/21 10:39:36;;;;;;;3.60;2.65;;;17.30;99.90;;;;;;4987930;28;20065;-76
2022/04/21 10:42:16;;;;;;;3.78;2.53;;;17.10;99.90;;;;;;5017476;28;20128;-77
2022/04/21 10:44:55;;;;;;;5.70;2.72;;;17.20;99.90;;;;;;5017308;28;20038;-77
2022/04/21 10:47:36;;;;;;;3.42;2.33;;;17.40;99.90;;;;;;5017344;28;20050;-77
2022/04/21 10:50:03;;;;;;;4.30;2.58;;;17.60;99.90;;;;;;5017615;28;20430;-76
2022/04/21 10:57:48;;;;;;;3.33;2.53;;;17.90;99.90;;;;;;5017767;28;20248;-75
2022/04/21 11:00:24;;;;;;;4.43;2.58;;;18.00;99.90;;;;;;5017043;28;20038;-76
2022/04/21 11:03:03;;;;;;;5.50;2.40;;;18.10;99.90;;;;;;5017095;28;20050;-77
2022/04/21 11:05:37;;;;;;;4.30;2.70;;;18.10;99.90;;;;;;4999764;28;20050;-78
2022/04/21 11:08:04;;;;;;;4.85;2.90;;;18.10;99.90;;;;;;5015881;28;20057;-75
2022/04/21 11:10:39;;;;;;;4.55;2.25;;;18.20;99.90;;;;;;5016971;28;20060;-75
2022/04/21 11:13:10;;;;;;;3.92;2.58;;;18.30;99.90;;;;;;5016913;28;20085;-78
2022/04/21 11:15:39;;;;;;;4.93;2.70;;;18.40;99.90;;;;;;5016833;28;20042;-75
2022/04/21 11:18:18;;;;;;;4.53;2.38;;;18.40;99.90;;;;;;5016647;28;20053;-76
2022/04/21 11:20:47;;;;;;;3.92;2.33;;;18.40;99.90;;;;;;5016516;28;20117;-76
2022/04/21 11:23:45;;;;;;;3.70;2.50;;;18.40;99.90;;;;;;5016973;28;20050;-74
2022/04/21 11:26:12;;;;;;;3.53;2.30;;;18.50;99.90;;;;;;5015499;28;20403;-76
2022/04/21 11:28:45;;;;;;;4.47;3.13;;;18.40;99.90;;;;;;5017298;28;20053;-77
2022/04/21 11:31:12;;;;;;;3.72;2.67;;;18.40;99.90;;;;;;5016465;28;20041;-75
2022/04/21 11:33:44;;;;;;;4.30;2.47;;;18.30;99.90;;;;;;5016315;28;20415;-74
2022/04/21 11:36:12;;;;;;;3.53;2.50;;;18.20;99.90;;;;;;5016387;28;20045;-75
2022/04/21 11:38:43;;;;;;;4.32;2.92;;;18.20;99.90;;;;;;5016464;28;20054;-76
2022/04/21 11:41:10;;;;;;;5.60;3.70;;;18.40;99.90;;;;;;5016597;28;20502;-75
2022/04/21 11:43:37;;;;;;;4.28;2.67;;;18.50;99.90;;;;;;5015103;28;20046;-76
2022/04/21 11:46:09;;;;;;;5.63;2.90;;;18.70;99.90;;;;;;5016257;28;20053;-76
2022/04/21 11:48:37;;;;;;;4.35;2.70;;;18.80;99.90;;;;;;5015867;28;20056;-75
2022/04/21 11:51:04;;;;;;;4.78;2.78;;;18.90;99.90;;;;;;5015725;28;20048;-76
2022/04/21 11:53:43;;;;;;;4.18;2.90;;;18.80;99.90;;;;;;5016390;28;20143;-75
2022/04/21 11:56:10;;;;;;;5.60;2.90;;;18.60;99.90;;;;;;5016605;28;20470;-77
2022/04/21 11:58:41;;;;;;;7.47;3.33;;;18.60;99.90;;;;;;5016182;28;20082;-76
2022/04/21 12:06:57;;;;;;;3.60;2.50;;;18.90;99.90;;;;;;5015928;28;20560;-77
2022/04/21 12:09:28;;;;;;;4.32;2.90;;;18.50;99.90;;;;;;5015931;28;20077;-76
2022/04/21 12:11:56;;;;;;;4.13;2.65;;;18.20;99.90;;;;;;5014665;28;20045;-76
2022/04/21 12:14:23;;;;;;;4.85;2.70;;;18.10;99.90;;;;;;5015925;28;20475;-75
2022/04/21 12:16:53;;;;;;;4.90;2.67;;;18.00;99.90;;;;;;5016225;28;20041;-76
2022/04/21 12:19:38;;;;;;;5.07;2.90;;;18.20;99.90;;;;;;5014970;28;20052;-76
2022/04/21 12:22:13;;;;;;;4.03;2.42;;;18.60;99.90;;;;;;5015748;28;20057;-76
2022/04/21 12:24:41;;;;;;;4.90;3.00;;;19.10;99.90;;;;;;5015566;28;20508;-76
2022/04/21 12:27:17;;;;;;;3.97;2.88;;;19.40;99.90;;;;;;5015454;28;20108;-77
2022/04/21 12:29:49;;;;;;;6.68;2.72;;;19.70;99.90;;;;;;5015575;28;20049;-78
2022/04/21 12:32:39;;;;;;;4.47;2.75;;;19.70;99.90;;;;;;5015867;28;20089;-75
2022/04/21 12:35:10;;;;;;;3.75;2.50;;;19.20;99.90;;;;;;5005540;28;20143;-76
2022/04/21 12:37:38;;;;;;;6.72;3.10;;;18.80;99.90;;;;;;5015363;28;20046;-75
2022/04/21 12:40:06;;;;;;;5.30;3.00;;;18.40;99.90;;;;;;5015149;28;20115;-77
2022/04/21 12:42:33;;;;;;;3.97;3.00;;;18.20;99.90;;;;;;5015961;28;20046;-75
2022/04/21 12:44:58;;;;;;;4.35;3.03;;;18.10;99.90;;;;;;5013741;28;20042;-74
2022/04/21 12:47:25;;;;;;;4.30;3.08;;;18.00;99.90;;;;;;5015643;28;20100;-77
2022/04/21 12:49:57;;;;;;;5.18;2.88;;;18.20;99.90;;;;;;5014393;28;20052;-74
2022/04/21 12:52:29;;;;;;;4.97;2.97;;;18.60;99.90;;;;;;5015684;28;20046;-75
2022/04/21 12:54:55;;;;;;;5.25;3.30;;;19.20;99.90;;;;;;5013892;28;20104;-76
2022/04/21 12:57:20;;;;;;;5.45;3.13;;;19.60;99.90;;;;;;5013583;28;20057;-76
2022/04/21 12:59:46;;;;;;;3.85;2.80;;;20.00;99.90;;;;;;5014657;28;20470;-75
2022/04/21 13:02:15;;;;;;;5.30;3.03;;;20.50;99.90;;;;;;5013476;28;20449;-77
2022/04/21 13:04:41;;;;;;;4.38;3.00;;;20.80;99.90;;;;;;5015142;28;20049;-77
2022/04/21 13:07:09;;;;;;;4.70;3.10;;;21.00;99.90;;;;;;5014774;28;20050;-77
2022/04/21 13:09:34;;;;;;;7.07;3.30;;;21.10;99.90;;;;;;5014762;28;20052;-75
2022/04/21 13:12:00;;;;;;;5.00;3.25;;;21.40;99.90;;;;;;5013803;28;20046;-75
2022/04/21 13:14:26;;;;;;;6.18;3.53;;;21.60;99.90;;;;;;5014709;28;20038;-74
2022/04/21 13:16:52;;;;;;;4.65;3.20;;;21.90;99.90;;;;;;5015189;28;20049;-75
2022/04/21 13:19:17;;;;;;;6.45;2.92;;;21.90;99.90;;;;;;4998118;28;20056;-74
2022/04/21 13:21:58;;;;;;;5.13;3.03;;;21.90;99.90;;;;;;5014752;28;20105;-75
2022/04/21 13:24:27;;;;;;;5.00;2.70;;;21.80;99.70;;;;;;5014396;28;20085;-75
2022/04/21 13:26:53;;;;;;;5.75;2.85;;;21.50;99.90;;;;;;5014169;28;20046;-75
2022/04/21 13:29:20;;;;;;;6.80;3.20;;;21.20;99.40;;;;;;5014114;28;20578;-74
2022/04/21 13:34:35;;;;;;;5.15;3.17;;;20.70;99.00;;;;;;5014309;28;20057;-74
2022/04/21 13:37:02;;;;;;;4.18;3.08;;;20.40;99.10;;;;;;5014305;28;20086;-74
2022/04/21 13:39:28;;;;;;;5.03;3.13;;;20.20;98.90;;;;;;5014188;28;20053;-75
2022/04/21 13:41:54;;;;;;;5.75;3.03;;;20.00;98.60;;;;;;5013245;28;20054;-74
2022/04/21 13:44:20;;;;;;;4.93;3.05;;;19.70;98.90;;;;;;5014034;28;20041;-74
2022/04/21 13:46:46;;;;;;;5.93;3.00;;;19.60;99.40;;;;;;5014653;28;20362;-78
2022/04/21 13:49:12;;;;;;;5.25;3.13;;;19.60;99.30;;;;;;5014569;28;20068;-78
2022/04/21 13:51:38;;;;;;;6.53;3.53;;;19.80;99.30;;;;;;5012987;28;20383;-78
2022/04/21 13:54:04;;;;;;;5.47;3.28;;;20.00;99.20;;;;;;5014054;28;20132;-76
2022/04/21 13:56:30;;;;;;;3.90;3.10;;;20.10;99.60;;;;;;5013926;28;20474;-76